Data Viewer
| City | State | Eastern Time | Source | Temp | DewPt | RH | BP | 5 Min Precip | Wind Speed | Wind Dir | 5 Min Wind Max | 5 Min Wind Max Dir |
|---|---|---|---|---|---|---|---|---|---|---|---|---|
| Hazleton | PA | 2026-05-02 17:15 | AWOS | 50 | 25 | 37 | 29.89 | 5 | NW | |||
| Hazleton | PA | 2026-05-03 11:15 | AWOS | 46 | 19 | 34 | 29.98 | 8 | NW | |||
| Hazleton | PA | 2026-05-03 06:35 | AWOS | 36 | 28 | 75 | 29.99 | 5 | NW | |||
| Hazleton | PA | 2026-05-03 06:55 | AWOS | 36 | 28 | 75 | 29.99 | 3 | WNW | |||
| Hazleton | PA | 2026-05-03 07:15 | AWOS | 36 | 28 | 75 | 30.00 | 0 | N | |||
| Hazleton | PA | 2026-05-03 07:35 | AWOS | 37 | 28 | 70 | 30.01 | 5 | W | |||
| Hazleton | PA | 2026-05-03 07:55 | AWOS | 37 | 28 | 70 | 30.01 | 0 | N | |||
| Hazleton | PA | 2026-05-03 08:15 | AWOS | 37 | 28 | 70 | 30.01 | 5 | W | |||
| Hazleton | PA | 2026-05-03 08:35 | AWOS | 39 | 28 | 65 | 30.01 | 5 | WNW | |||
| Hazleton | PA | 2026-05-03 08:55 | AWOS | 41 | 28 | 61 | 30.00 | 8 | NW | |||
| Hazleton | PA | 2026-05-03 09:15 | AWOS | 43 | 28 | 56 | 29.99 | 9 | NW | |||
| Hazleton | PA | 2026-05-03 09:35 | AWOS | 43 | 28 | 56 | 29.99 | 6 | WNW | |||
| Hazleton | PA | 2026-05-03 09:55 | AWOS | 43 | 26 | 52 | 29.99 | 6 | WNW | |||
| Hazleton | PA | 2026-05-03 10:15 | AWOS | 45 | 23 | 42 | 29.98 | 10 | NW | |||
| Hazleton | PA | 2026-05-03 10:35 | AWOS | 45 | 23 | 42 | 29.98 | 7 | WNW | |||
| Hazleton | PA | 2026-05-03 11:35 | AWOS | 48 | 19 | 32 | 29.97 | 7 | NW | |||
| Hazleton | PA | 2026-05-03 05:55 | AWOS | 36 | 28 | 75 | 29.97 | 6 | NW | |||
| Hazleton | PA | 2026-05-03 11:55 | AWOS | 46 | 19 | 34 | 29.98 | 7 | NW | |||
| Hazleton | PA | 2026-05-03 12:15 | AWOS | 48 | 19 | 32 | 29.96 | 7 | W | |||
| Hazleton | PA | 2026-05-03 12:35 | AWOS | 48 | 19 | 32 | 29.96 | 5 | WNW | |||
| Hazleton | PA | 2026-05-03 12:55 | AWOS | 50 | 19 | 29 | 29.94 | 7 | WNW | |||
| Hazleton | PA | 2026-05-03 13:35 | AWOS | 52 | 21 | 30 | 29.94 | 8 | W | |||
| Hazleton | PA | 2026-05-03 13:55 | AWOS | 52 | 21 | 30 | 29.93 | 6 | NW | |||
| Hazleton | PA | 2026-05-03 14:15 | AWOS | 52 | 23 | 32 | 29.93 | 7 | WNW | |||
| Hazleton | PA | 2026-05-03 14:35 | AWOS | 52 | 21 | 30 | 29.92 | 8 | W | |||
| Hazleton | PA | 2026-05-03 14:55 | AWOS | 54 | 21 | 28 | 29.91 | 7 | W | |||
| Hazleton | PA | 2026-05-03 15:15 | AWOS | 55 | 21 | 26 | 29.90 | 9 | W | |||
| Hazleton | PA | 2026-05-03 15:35 | AWOS | 55 | 19 | 24 | 29.90 | 3 | WNW | |||
| Hazleton | PA | 2026-05-03 15:55 | AWOS | 54 | 19 | 26 | 29.89 | 8 | WNW | |||
| Hazleton | PA | 2026-05-03 16:15 | AWOS | 55 | 21 | 26 | 29.88 | 7 | W | |||
| Hazleton | PA | 2026-05-03 16:35 | AWOS | 55 | 21 | 26 | 29.88 | 8 | W | |||
| Hazleton | PA | 2026-05-03 06:15 | AWOS | 36 | 28 | 75 | 29.98 | 6 | NW | |||
| Hazleton | PA | 2026-05-03 05:35 | AWOS | 36 | 28 | 75 | 29.97 | 5 | NW | |||
| Hazleton | PA | 2026-05-02 17:35 | AWOS | 50 | 25 | 37 | 29.90 | 3 | WNW | |||
| Hazleton | PA | 2026-05-02 23:15 | AWOS | 43 | 30 | 61 | 29.97 | 6 | NNW | |||
| Hazleton | PA | 2026-05-02 17:55 | AWOS | 50 | 26 | 40 | 29.90 | 5 | W | |||
| Hazleton | PA | 2026-05-02 18:15 | AWOS | 50 | 26 | 40 | 29.90 | 5 | NW | |||
| Hazleton | PA | 2026-05-02 19:15 | AWOS | 46 | 28 | 49 | 29.94 | 3 | WNW | |||
| Hazleton | PA | 2026-05-02 19:35 | AWOS | 46 | 28 | 49 | 29.93 | 0 | N | |||
| Hazleton | PA | 2026-05-02 19:55 | AWOS | 45 | 28 | 53 | 29.93 | 0 | N | |||
| Hazleton | PA | 2026-05-02 20:15 | AWOS | 45 | 28 | 53 | 29.94 | 0 | N | |||
| Hazleton | PA | 2026-05-02 20:35 | AWOS | 45 | 28 | 53 | 29.94 | 3 | W | |||
| Hazleton | PA | 2026-05-02 20:55 | AWOS | 45 | 28 | 53 | 29.95 | 5 | NW | |||
| Hazleton | PA | 2026-05-02 21:15 | AWOS | 45 | 28 | 53 | 29.95 | 0 | N | |||
| Hazleton | PA | 2026-05-02 21:35 | AWOS | 45 | 28 | 53 | 29.96 | 3 | WNW | |||
| Hazleton | PA | 2026-05-02 21:55 | AWOS | 45 | 28 | 53 | 29.96 | 6 | NNW | |||
| Hazleton | PA | 2026-05-02 22:35 | AWOS | 43 | 30 | 61 | 29.97 | 0 | N | |||
| Hazleton | PA | 2026-05-02 22:55 | AWOS | 43 | 30 | 61 | 29.97 | 5 | NW | |||
| Hazleton | PA | 2026-05-02 23:35 | AWOS | 43 | 30 | 61 | 29.97 | 3 | N | |||
| Hazleton | PA | 2026-05-03 05:15 | AWOS | 37 | 28 | 70 | 29.97 | 3 | NW | |||
| Hazleton | PA | 2026-05-03 00:15 | AWOS | 41 | 30 | 65 | 29.96 | 7 | NW | |||
| Hazleton | PA | 2026-05-03 00:55 | AWOS | 41 | 28 | 61 | 29.95 | 8 | NNW | |||
| Hazleton | PA | 2026-05-03 01:15 | AWOS | 41 | 28 | 61 | 29.95 | 7 | NNW | |||
| Hazleton | PA | 2026-05-03 01:35 | AWOS | 41 | 28 | 61 | 29.95 | 7 | NNW | |||
| Hazleton | PA | 2026-05-03 01:55 | AWOS | 41 | 28 | 61 | 29.94 | 9 | NNW | |||
| Hazleton | PA | 2026-05-03 02:15 | AWOS | 39 | 28 | 65 | 29.95 | 10 | NW | |||
| Hazleton | PA | 2026-05-03 02:35 | AWOS | 39 | 28 | 65 | 29.95 | 9 | NNW | |||
| Hazleton | PA | 2026-05-03 02:55 | AWOS | 39 | 28 | 65 | 29.95 | 10 | NW | |||
| Hazleton | PA | 2026-05-03 03:15 | AWOS | 39 | 28 | 65 | 29.95 | 13 | NW | |||
| Hazleton | PA | 2026-05-03 03:35 | AWOS | 37 | 28 | 70 | 29.96 | 7 | NNW | |||
| Hazleton | PA | 2026-05-03 03:55 | AWOS | 37 | 28 | 70 | 29.96 | 7 | NNW | |||
| Hazleton | PA | 2026-05-03 04:15 | AWOS | 37 | 28 | 70 | 29.96 | 6 | NW | |||
| Hazleton | PA | 2026-05-03 04:35 | AWOS | 37 | 28 | 70 | 29.97 | 5 | NW | |||
| Hazleton | PA | 2026-05-03 04:55 | AWOS | 37 | 28 | 70 | 29.97 | 5 | NW | |||
| Hazleton | PA | 2026-05-03 16:55 | AWOS | 55 | 23 | 28 | 29.88 | 5 | NW |
data collection created in 0.010701894760132 (queried in 0.002395) rendered in: 9.2029571533203E-5

